createdAt,value
2022-10-09T00:02:23.889Z,13.43
2022-10-09T00:05:31.370Z,13.61
2022-10-09T00:08:39.406Z,13.84
2022-10-09T00:11:46.012Z,13.92
2022-10-09T00:14:52.791Z,13.86
2022-10-09T00:17:59.400Z,13.83
2022-10-09T00:21:06.865Z,14.02
2022-10-09T00:24:15.715Z,13.85
2022-10-09T00:27:24.506Z,13.93
2022-10-09T00:30:31.876Z,13.76
2022-10-09T00:33:39.440Z,13.54
2022-10-09T00:36:48.410Z,13.39
2022-10-09T00:39:55.174Z,13.54
2022-10-09T00:43:02.308Z,13.52
2022-10-09T00:46:16.847Z,13.35
2022-10-09T00:49:28.999Z,13.36
2022-10-09T00:52:35.948Z,13.28
2022-10-09T00:55:44.060Z,13.38
2022-10-09T00:58:56.270Z,13.65
2022-10-09T01:02:03.518Z,13.08
2022-10-09T01:05:12.030Z,13.28
2022-10-09T01:08:26.244Z,12.86
2022-10-09T01:11:42.480Z,12.50
2022-10-09T01:14:57.873Z,12.99
2022-10-09T01:18:09.175Z,13.44
2022-10-09T01:21:19.681Z,13.54
2022-10-09T01:24:31.162Z,13.20
2022-10-09T01:27:39.072Z,13.18
2022-10-09T01:30:47.189Z,13.00
2022-10-09T01:33:53.998Z,13.33
2022-10-09T01:37:02.065Z,13.67
2022-10-09T01:40:12.064Z,13.75
2022-10-09T01:43:19.263Z,13.59
2022-10-09T01:46:29.211Z,13.36
2022-10-09T01:49:52.906Z,13.52
2022-10-09T01:53:02.302Z,13.36
2022-10-09T01:56:15.148Z,13.42
2022-10-09T01:59:23.457Z,13.23
2022-10-09T02:02:30.933Z,13.46
2022-10-09T02:05:38.530Z,13.46
2022-10-09T02:08:48.099Z,13.49
2022-10-09T02:11:58.627Z,13.71
2022-10-09T02:15:05.465Z,13.76
2022-10-09T02:18:16.005Z,13.62
2022-10-09T02:21:27.435Z,13.44
2022-10-09T02:24:34.876Z,13.26
2022-10-09T02:27:41.982Z,13.37
2022-10-09T02:30:55.625Z,13.22
2022-10-09T02:34:05.671Z,13.07
2022-10-09T02:37:12.351Z,13.29
2022-10-09T02:40:19.405Z,13.24
2022-10-09T02:43:26.117Z,13.17
2022-10-09T02:46:32.947Z,13.31
2022-10-09T02:49:40.062Z,13.56
2022-10-09T02:52:47.099Z,13.59
2022-10-09T02:55:53.994Z,13.72
2022-10-09T02:59:00.852Z,13.55
2022-10-09T03:02:07.723Z,13.47
2022-10-09T03:05:14.302Z,13.35
2022-10-09T03:08:20.865Z,13.24
2022-10-09T03:11:28.096Z,13.06
2022-10-09T03:14:35.284Z,13.04
2022-10-09T03:17:42.036Z,12.95
2022-10-09T03:20:49.097Z,12.97
2022-10-09T03:23:56.581Z,12.49
2022-10-09T03:27:03.257Z,12.40
2022-10-09T03:30:12.232Z,12.23
2022-10-09T03:33:18.790Z,12.15
2022-10-09T03:36:25.312Z,12.18
2022-10-09T03:39:32.332Z,11.89
2022-10-09T03:42:38.993Z,12.28
2022-10-09T03:45:45.812Z,12.52
2022-10-09T03:48:52.509Z,12.28
2022-10-09T03:51:59.075Z,12.40
2022-10-09T03:55:07.120Z,12.37
2022-10-09T03:58:13.908Z,12.44
2022-10-09T04:01:20.787Z,12.60
2022-10-09T04:04:28.052Z,12.73
2022-10-09T04:07:34.914Z,12.76
2022-10-09T04:10:41.561Z,12.91
2022-10-09T04:13:48.293Z,12.91
2022-10-09T04:16:55.070Z,13.14
2022-10-09T04:20:01.661Z,13.31
2022-10-09T04:23:08.233Z,13.44
2022-10-09T04:26:15.677Z,13.50
2022-10-09T04:29:22.380Z,13.34
2022-10-09T04:32:29.129Z,12.18
2022-10-09T04:35:35.583Z,11.06
2022-10-09T04:38:42.356Z,11.69
2022-10-09T04:41:49.007Z,12.35
2022-10-09T04:44:55.703Z,12.51
2022-10-09T04:48:02.599Z,12.58
2022-10-09T04:51:10.472Z,12.69
2022-10-09T04:54:17.036Z,12.81
2022-10-09T04:57:23.707Z,13.04
2022-10-09T05:00:30.298Z,13.03
2022-10-09T05:03:37.893Z,11.98
2022-10-09T05:06:44.452Z,10.85
2022-10-09T05:09:51.310Z,11.35
2022-10-09T05:12:57.809Z,12.08
2022-10-09T05:16:07.347Z,12.26
2022-10-09T05:19:12.468Z,12.47
2022-10-09T05:22:19.197Z,12.57
2022-10-09T05:25:26.036Z,12.19
2022-10-09T05:28:33.093Z,12.55
2022-10-09T05:31:39.905Z,12.63
2022-10-09T05:34:46.616Z,12.90
2022-10-09T05:37:53.359Z,13.18
2022-10-09T05:41:01.349Z,13.11
2022-10-09T05:44:08.946Z,11.95
2022-10-09T05:47:17.981Z,10.60
2022-10-09T05:50:24.943Z,10.76
2022-10-09T05:53:32.090Z,11.74
2022-10-09T05:56:40.360Z,12.42
2022-10-09T05:59:47.294Z,12.78
2022-10-09T06:02:53.958Z,13.04
2022-10-09T06:06:03.753Z,13.39
2022-10-09T06:09:11.900Z,13.28
2022-10-09T06:12:18.531Z,12.43
2022-10-09T06:15:25.080Z,11.37
2022-10-09T06:18:31.686Z,11.82
2022-10-09T06:21:38.244Z,12.19
2022-10-09T06:24:44.960Z,12.77
2022-10-09T06:27:51.709Z,12.96
2022-10-09T06:31:03.669Z,13.28
2022-10-09T06:34:12.260Z,13.10
2022-10-09T06:37:18.759Z,13.29
2022-10-09T06:40:25.524Z,13.48
2022-10-09T06:43:32.273Z,13.34
2022-10-09T06:46:41.095Z,12.75
2022-10-09T06:49:47.698Z,12.93
2022-10-09T06:52:54.285Z,12.71
2022-10-09T06:56:01.026Z,13.13
2022-10-09T06:59:08.630Z,13.04
2022-10-09T07:02:15.288Z,13.30
2022-10-09T07:05:21.970Z,13.43
2022-10-09T07:08:28.669Z,12.83
2022-10-09T07:11:36.933Z,12.94
2022-10-09T07:14:43.537Z,12.95
2022-10-09T07:17:50.234Z,13.04
2022-10-09T07:20:57.302Z,13.18
2022-10-09T07:24:04.702Z,12.89
2022-10-09T07:27:11.364Z,12.94
2022-10-09T07:30:18.146Z,12.89
2022-10-09T07:33:24.813Z,12.98
2022-10-09T07:36:31.684Z,12.83
2022-10-09T07:39:42.894Z,12.83
2022-10-09T07:42:51.757Z,13.51
2022-10-09T07:46:02.275Z,13.02
2022-10-09T07:49:09.101Z,12.77
2022-10-09T07:52:15.765Z,12.68
2022-10-09T07:55:22.449Z,12.90
2022-10-09T07:58:29.096Z,12.77
2022-10-09T08:01:37.091Z,12.91
2022-10-09T08:04:43.682Z,13.08
2022-10-09T08:07:50.384Z,13.07
2022-10-09T08:10:57.142Z,13.37
2022-10-09T08:14:03.771Z,13.49
2022-10-09T08:17:10.465Z,13.88
2022-10-09T08:20:17.307Z,14.41
2022-10-09T08:23:23.943Z,14.05
2022-10-09T08:26:31.987Z,14.38
2022-10-09T08:29:40.376Z,14.11
2022-10-09T08:32:47.379Z,14.26
2022-10-09T08:35:55.128Z,13.95
2022-10-09T08:39:02.133Z,14.27
2022-10-09T08:42:19.378Z,14.26
2022-10-09T08:45:26.039Z,14.69
2022-10-09T08:48:37.973Z,14.44
2022-10-09T08:51:46.336Z,14.64
2022-10-09T08:54:54.119Z,14.94
2022-10-09T08:58:05.767Z,14.91
2022-10-09T09:01:22.583Z,15.28
2022-10-09T09:04:39.686Z,15.28
2022-10-09T09:07:55.799Z,15.51
2022-10-09T09:11:21.680Z,15.91
2022-10-09T09:14:43.551Z,15.90
2022-10-09T09:17:59.867Z,16.48
2022-10-09T09:21:14.691Z,16.71
2022-10-09T09:24:23.224Z,16.74
2022-10-09T09:27:33.197Z,16.38
2022-10-09T09:30:45.691Z,16.78
2022-10-09T09:33:58.606Z,17.14
2022-10-09T09:37:05.657Z,16.65
2022-10-09T09:40:36.184Z,17.00
2022-10-09T09:43:44.007Z,16.98
2022-10-09T09:46:51.863Z,15.59
2022-10-09T09:50:01.164Z,15.67
2022-10-09T09:53:08.509Z,16.14
2022-10-09T09:56:15.667Z,16.69
2022-10-09T09:59:38.075Z,16.86
2022-10-09T10:02:44.904Z,15.90
2022-10-09T10:05:52.092Z,15.46
2022-10-09T10:09:03.865Z,16.06
2022-10-09T10:12:19.541Z,15.85
2022-10-09T10:15:29.757Z,15.40
2022-10-09T10:18:42.635Z,15.38
2022-10-09T10:21:56.287Z,16.25
2022-10-09T10:25:03.471Z,16.16
2022-10-09T10:28:19.101Z,15.75
2022-10-09T10:31:41.374Z,15.52
2022-10-09T10:34:53.696Z,15.25
2022-10-09T10:38:06.839Z,14.89
2022-10-09T10:41:21.044Z,14.71
2022-10-09T10:44:38.631Z,14.99
2022-10-09T10:47:50.223Z,16.11
2022-10-09T10:51:07.711Z,15.92
2022-10-09T10:54:29.542Z,15.53
2022-10-09T10:57:44.428Z,15.26
2022-10-09T11:01:05.413Z,15.24
2022-10-09T11:04:29.968Z,15.33
2022-10-09T11:07:43.114Z,15.62
2022-10-09T11:11:00.487Z,15.74
2022-10-09T11:14:20.197Z,15.85
2022-10-09T11:17:34.814Z,16.03
2022-10-09T11:20:56.217Z,16.25
2022-10-09T11:24:24.124Z,16.39
2022-10-09T11:27:39.061Z,16.51
2022-10-09T11:30:52.337Z,16.70
2022-10-09T11:34:04.548Z,16.50
2022-10-09T11:37:17.515Z,16.49
2022-10-09T11:40:27.767Z,16.56
2022-10-09T11:43:47.866Z,16.51
2022-10-09T11:47:02.025Z,16.48
2022-10-09T11:50:27.061Z,16.51
2022-10-09T11:53:37.000Z,16.69
2022-10-09T11:56:55.600Z,16.71
2022-10-09T12:00:11.254Z,16.75
2022-10-09T12:03:30.158Z,16.87
2022-10-09T12:06:48.349Z,17.03
2022-10-09T12:10:01.529Z,17.01
2022-10-09T12:13:28.313Z,16.96
2022-10-09T12:16:42.473Z,17.11
2022-10-09T12:19:51.207Z,16.89
2022-10-09T12:23:25.109Z,16.72
2022-10-09T12:26:29.070Z,16.78
2022-10-09T12:29:41.684Z,16.86
2022-10-09T12:32:52.674Z,17.01
2022-10-09T12:36:06.322Z,16.98
2022-10-09T12:39:20.425Z,16.86
2022-10-09T12:42:28.034Z,16.89
2022-10-09T12:45:34.931Z,16.74
2022-10-09T12:48:43.752Z,16.70
2022-10-09T12:51:56.430Z,16.73
2022-10-09T12:55:03.740Z,16.80
2022-10-09T12:58:17.609Z,16.55
2022-10-09T13:01:24.979Z,16.35
2022-10-09T13:04:34.964Z,16.30
2022-10-09T13:07:45.344Z,16.29
2022-10-09T13:10:55.690Z,16.31
2022-10-09T13:14:03.006Z,16.31
2022-10-09T13:17:26.525Z,16.41
2022-10-09T13:20:34.309Z,16.57
2022-10-09T13:23:40.937Z,16.66
2022-10-09T13:26:47.602Z,16.74
2022-10-09T13:29:54.275Z,16.77
2022-10-09T13:33:01.127Z,16.69
2022-10-09T13:36:08.611Z,16.48
2022-10-09T13:39:16.593Z,16.35
2022-10-09T13:42:25.139Z,16.36
2022-10-09T13:45:31.801Z,16.43
2022-10-09T13:48:39.594Z,16.54
2022-10-09T13:51:46.256Z,16.66
2022-10-09T13:54:52.776Z,16.72
2022-10-09T13:57:59.459Z,16.76
2022-10-09T14:01:06.301Z,16.82
2022-10-09T14:04:13.057Z,16.89
2022-10-09T14:07:19.664Z,16.98
2022-10-09T14:10:26.821Z,17.10
2022-10-09T14:13:33.492Z,17.19
2022-10-09T14:16:40.278Z,17.26
2022-10-09T14:19:46.871Z,17.37
2022-10-09T14:22:53.570Z,17.37
2022-10-09T14:26:05.144Z,17.38
2022-10-09T14:29:11.978Z,17.30
2022-10-09T14:32:18.619Z,17.26
2022-10-09T14:35:25.388Z,17.11
2022-10-09T14:38:32.015Z,16.94
2022-10-09T14:41:40.215Z,16.71
2022-10-09T14:44:46.819Z,16.43
2022-10-09T14:47:53.457Z,16.21
2022-10-09T14:51:04.830Z,16.07
2022-10-09T14:54:12.206Z,16.00
2022-10-09T14:57:19.254Z,16.10
2022-10-09T15:00:25.852Z,16.27
2022-10-09T15:03:33.264Z,16.43
2022-10-09T15:06:39.814Z,16.61
2022-10-09T15:09:46.479Z,16.79
2022-10-09T15:12:55.733Z,17.03
2022-10-09T15:16:03.947Z,17.29
2022-10-09T15:19:10.621Z,17.53
2022-10-09T15:22:17.409Z,17.74
2022-10-09T15:25:25.338Z,17.95
2022-10-09T15:28:32.017Z,18.16
2022-10-09T15:31:41.227Z,18.29
2022-10-09T15:34:46.454Z,18.44
2022-10-09T15:37:55.679Z,18.52
2022-10-09T15:41:02.689Z,18.31
2022-10-09T15:44:14.204Z,17.84
2022-10-09T15:47:39.330Z,17.26
2022-10-09T15:50:51.643Z,16.62
2022-10-09T15:53:59.957Z,16.06
2022-10-09T15:57:09.665Z,15.55
2022-10-09T16:00:17.631Z,15.06
2022-10-09T16:03:24.145Z,14.62
2022-10-09T16:06:30.848Z,14.18
2022-10-09T16:09:38.009Z,13.80
2022-10-09T16:12:44.653Z,13.44
2022-10-09T16:15:51.573Z,13.11
2022-10-09T16:19:00.187Z,12.79
2022-10-09T16:22:07.021Z,12.47
2022-10-09T16:25:14.237Z,12.44
2022-10-09T16:28:20.883Z,13.60
2022-10-09T16:31:31.409Z,14.61
2022-10-09T16:34:38.142Z,15.29
2022-10-09T16:37:45.064Z,15.82
2022-10-09T16:41:07.862Z,15.98
2022-10-09T16:44:17.009Z,14.80
2022-10-09T16:47:23.596Z,13.81
2022-10-09T16:50:30.501Z,13.10
2022-10-09T16:53:37.430Z,12.54
2022-10-09T16:56:45.889Z,12.47
2022-10-09T16:59:52.540Z,13.68
2022-10-09T17:02:59.719Z,14.61
2022-10-09T17:06:12.097Z,15.18
2022-10-09T17:09:18.833Z,15.28
2022-10-09T17:12:25.438Z,14.21
2022-10-09T17:15:32.140Z,13.23
2022-10-09T17:18:39.622Z,12.51
2022-10-09T17:21:46.353Z,12.26
2022-10-09T17:24:53.100Z,13.35
2022-10-09T17:28:01.415Z,14.30
2022-10-09T17:31:16.272Z,14.90
2022-10-09T17:34:23.554Z,14.97
2022-10-09T17:37:30.107Z,13.80
2022-10-09T17:40:40.116Z,12.75
2022-10-09T17:43:47.049Z,11.99
2022-10-09T17:46:53.942Z,11.66
2022-10-09T17:50:00.616Z,12.53
2022-10-09T17:53:07.684Z,13.48
2022-10-09T17:56:15.341Z,14.11
2022-10-09T17:59:22.062Z,14.51
2022-10-09T18:02:28.847Z,14.50
2022-10-09T18:05:41.392Z,13.34
2022-10-09T18:08:48.368Z,12.24
2022-10-09T18:11:54.956Z,11.77
2022-10-09T18:15:02.813Z,12.68
2022-10-09T18:18:12.690Z,13.56
2022-10-09T18:21:19.621Z,14.12
2022-10-09T18:24:26.343Z,14.51
2022-10-09T18:27:33.431Z,14.29
2022-10-09T18:30:46.068Z,12.97
2022-10-09T18:33:53.601Z,11.84
2022-10-09T18:37:00.271Z,11.34
2022-10-09T18:40:10.773Z,12.12
2022-10-09T18:43:17.348Z,12.92
2022-10-09T18:46:26.599Z,13.55
2022-10-09T18:49:33.724Z,13.97
2022-10-09T18:52:42.699Z,14.20
2022-10-09T18:55:49.399Z,14.42
2022-10-09T18:58:56.481Z,14.12
2022-10-09T19:02:03.131Z,12.86
2022-10-09T19:05:10.771Z,11.77
2022-10-09T19:08:17.563Z,11.22
2022-10-09T19:11:24.214Z,12.04
2022-10-09T19:14:30.948Z,12.92
2022-10-09T19:17:37.657Z,13.42
2022-10-09T19:20:44.357Z,13.73
2022-10-09T19:23:52.219Z,13.97
2022-10-09T19:26:59.427Z,14.19
2022-10-09T19:30:07.655Z,13.82
2022-10-09T19:33:14.607Z,12.49
2022-10-09T19:36:24.119Z,11.46
2022-10-09T19:39:29.438Z,11.04
2022-10-09T19:42:36.061Z,12.05
2022-10-09T19:45:43.189Z,13.04
2022-10-09T19:48:49.791Z,13.62
2022-10-09T19:51:56.819Z,14.00
2022-10-09T19:55:03.572Z,14.01
2022-10-09T19:58:10.303Z,12.80
2022-10-09T20:01:19.116Z,11.62
2022-10-09T20:04:26.045Z,10.77
2022-10-09T20:07:34.243Z,10.50
2022-10-09T20:10:41.697Z,11.64
2022-10-09T20:13:54.842Z,12.61
2022-10-09T20:17:03.108Z,13.16
2022-10-09T20:20:11.269Z,13.50
2022-10-09T20:23:18.073Z,13.74
2022-10-09T20:26:25.158Z,13.62
2022-10-09T20:29:31.810Z,12.33
2022-10-09T20:32:38.309Z,11.14
2022-10-09T20:35:45.813Z,10.60
2022-10-09T20:38:54.726Z,11.55
2022-10-09T20:42:01.258Z,12.43
2022-10-09T20:45:09.125Z,12.92
2022-10-09T20:48:15.721Z,13.24
2022-10-09T20:51:23.471Z,13.44
2022-10-09T20:54:30.437Z,13.26
2022-10-09T20:57:37.118Z,11.94
2022-10-09T21:00:45.523Z,10.75
2022-10-09T21:03:52.698Z,10.25
2022-10-09T21:06:59.443Z,11.18
2022-10-09T21:10:07.299Z,12.05
2022-10-09T21:13:14.443Z,12.58
2022-10-09T21:16:23.118Z,12.96
2022-10-09T21:19:30.201Z,13.25
2022-10-09T21:22:36.981Z,13.10
2022-10-09T21:25:49.427Z,11.75
2022-10-09T21:28:59.685Z,10.52
2022-10-09T21:32:07.089Z,9.98
2022-10-09T21:35:13.644Z,10.93
2022-10-09T21:38:21.773Z,11.85
2022-10-09T21:41:29.041Z,12.41
2022-10-09T21:44:35.820Z,12.75
2022-10-09T21:47:42.318Z,13.04
2022-10-09T21:50:48.831Z,12.97
2022-10-09T21:53:58.810Z,11.71
2022-10-09T21:57:05.845Z,10.49
2022-10-09T22:00:14.480Z,9.98
2022-10-09T22:03:21.159Z,10.93
2022-10-09T22:06:27.982Z,11.77
2022-10-09T22:09:34.874Z,12.27
2022-10-09T22:12:41.643Z,12.69
2022-10-09T22:15:51.196Z,13.03
2022-10-09T22:18:58.441Z,13.01
2022-10-09T22:22:05.617Z,11.71
2022-10-09T22:25:12.433Z,10.46
2022-10-09T22:28:21.916Z,9.84
2022-10-09T22:31:28.018Z,10.69
2022-10-09T22:34:35.420Z,11.62
2022-10-09T22:37:42.020Z,12.28
2022-10-09T22:40:48.543Z,12.72
2022-10-09T22:43:57.501Z,13.02
2022-10-09T22:47:04.426Z,12.92
2022-10-09T22:50:12.164Z,11.62
2022-10-09T22:53:18.826Z,10.42
2022-10-09T22:56:28.708Z,9.89
2022-10-09T22:59:35.928Z,10.91
2022-10-09T23:02:42.616Z,11.85
2022-10-09T23:05:49.346Z,12.41
2022-10-09T23:08:56.039Z,12.77
2022-10-09T23:12:03.041Z,13.03
2022-10-09T23:15:11.380Z,12.90
2022-10-09T23:18:18.029Z,11.53
2022-10-09T23:21:25.375Z,10.31
2022-10-09T23:24:32.108Z,9.82
2022-10-09T23:27:38.805Z,10.87
2022-10-09T23:30:45.515Z,11.79
2022-10-09T23:33:52.183Z,12.36
2022-10-09T23:36:58.945Z,12.72
2022-10-09T23:40:06.564Z,12.99
2022-10-09T23:43:13.229Z,12.82
2022-10-09T23:46:22.380Z,11.45
2022-10-09T23:49:29.077Z,10.22
2022-10-09T23:52:37.588Z,9.68
2022-10-09T23:55:44.505Z,10.66
2022-10-09T23:58:52.731Z,11.59
